Time;durP1;ratioP1;P1;durP2;ratioP2;P2;SDS_P1;SDS_P2;PMS_P1;PMS_P2;Temp;Humidity;BMP_temperature;BMP_pressure;BME280_temperature;BME280_humidity;BME280_pressure;Samples;Min_cycle;Max_cycle;Signal;HPM_P1;HPM_P2
2023/09/01 00:00:43;;;;;;;10.98;7.55;;;8.80;99.90;;;;;;5054377;28;20483;-28
2023/09/01 00:03:09;;;;;;;15.88;7.47;;;8.70;99.90;;;;;;5054227;28;20086;-28
2023/09/01 00:05:36;;;;;;;14.20;7.68;;;8.70;99.90;;;;;;5055080;28;20430;-27
2023/09/01 00:08:02;;;;;;;13.15;7.50;;;8.80;99.90;;;;;;5036683;28;20044;-28
2023/09/01 00:10:28;;;;;;;12.50;7.32;;;8.80;99.90;;;;;;5053034;28;20041;-27
2023/09/01 00:12:55;;;;;;;12.38;7.13;;;8.80;99.90;;;;;;5054139;28;20049;-27
2023/09/01 00:15:21;;;;;;;15.73;7.72;;;8.90;99.90;;;;;;5054146;28;20041;-27
2023/09/01 00:17:47;;;;;;;16.58;8.10;;;8.80;99.90;;;;;;5036429;28;20056;-27
2023/09/01 00:20:13;;;;;;;16.10;7.57;;;8.80;99.90;;;;;;5052806;28;20497;-27
2023/09/01 00:22:38;;;;;;;12.88;7.72;;;8.80;99.90;;;;;;5036452;28;20055;-27
2023/09/01 00:25:05;;;;;;;12.05;7.68;;;8.80;99.90;;;;;;5053863;28;20077;-27
2023/09/01 00:27:30;;;;;;;14.00;7.53;;;8.70;99.90;;;;;;5036348;28;20131;-28
2023/09/01 00:29:56;;;;;;;13.85;7.47;;;8.80;99.90;;;;;;5053872;28;20265;-27
2023/09/01 00:32:22;;;;;;;18.15;8.50;;;8.80;99.90;;;;;;5053482;28;20041;-27
2023/09/01 00:34:58;;;;;;;16.10;8.35;;;8.80;99.90;;;;;;5053211;28;20128;-27
2023/09/01 00:37:24;;;;;;;16.98;8.50;;;8.80;99.90;;;;;;5052628;28;20099;-27
2023/09/01 00:39:50;;;;;;;19.45;8.07;;;8.80;99.90;;;;;;5053715;28;20119;-27
2023/09/01 00:42:16;;;;;;;11.35;7.60;;;8.80;99.90;;;;;;5053642;28;20064;-27
2023/09/01 00:44:42;;;;;;;11.18;8.32;;;8.80;99.90;;;;;;5053605;28;20048;-27
2023/09/01 00:47:08;;;;;;;17.33;9.38;;;8.70;99.90;;;;;;5052468;28;20084;-27
2023/09/01 00:49:36;;;;;;;18.52;10.10;;;8.70;99.90;;;;;;5053299;28;20554;-27
2023/09/01 00:52:02;;;;;;;16.38;9.63;;;8.60;99.90;;;;;;5054424;28;20116;-27
2023/09/01 00:54:28;;;;;;;17.60;9.93;;;8.50;99.90;;;;;;5035872;28;20554;-27
2023/09/01 00:56:54;;;;;;;16.48;9.90;;;8.50;99.90;;;;;;5053812;28;20045;-27
2023/09/01 00:59:20;;;;;;;15.05;10.13;;;8.60;99.90;;;;;;5053481;28;20376;-28
2023/09/01 01:01:47;;;;;;;18.60;9.90;;;8.40;99.90;;;;;;5053510;28;20049;-27
2023/09/01 01:04:14;;;;;;;19.17;10.93;;;8.40;99.90;;;;;;5052763;28;20049;-27
2023/09/01 01:07:06;;;;;;;16.30;10.35;;;8.40;99.90;;;;;;5052517;28;20145;-27
2023/09/01 01:09:53;;;;;;;14.50;9.10;;;8.50;99.90;;;;;;5054298;28;20075;-27
2023/09/01 01:12:46;;;;;;;15.00;8.93;;;8.50;99.90;;;;;;5053442;28;20053;-27
2023/09/01 01:15:14;;;;;;;16.17;8.57;;;8.50;99.90;;;;;;5054019;28;20045;-28
2023/09/01 01:17:43;;;;;;;18.50;9.85;;;8.50;99.90;;;;;;5053320;28;20057;-28
2023/09/01 01:20:13;;;;;;;14.57;9.18;;;8.50;99.90;;;;;;5053308;28;20048;-27
2023/09/01 01:23:09;;;;;;;13.82;9.85;;;8.50;99.90;;;;;;5054166;28;20053;-27
2023/09/01 01:25:35;;;;;;;14.10;9.73;;;8.60;99.90;;;;;;5053316;28;20048;-27
2023/09/01 01:28:08;;;;;;;13.57;8.73;;;8.50;99.90;;;;;;5053258;28;20037;-27
2023/09/01 01:30:34;;;;;;;14.10;8.05;;;8.60;99.90;;;;;;5053231;28;20556;-27
2023/09/01 01:33:00;;;;;;;12.07;8.07;;;8.50;99.90;;;;;;5053792;28;20052;-27
2023/09/01 01:35:57;;;;;;;15.18;7.72;;;8.50;99.90;;;;;;5053217;28;20106;-28
2023/09/01 01:38:29;;;;;;;13.88;7.35;;;8.40;99.90;;;;;;5051576;28;20059;-27
2023/09/01 01:41:20;;;;;;;13.17;7.27;;;8.40;99.90;;;;;;5053424;28;20079;-27
2023/09/01 01:43:50;;;;;;;11.40;6.97;;;8.40;99.90;;;;;;5046728;28;20728;-27
2023/09/01 01:46:17;;;;;;;11.85;6.90;;;8.30;99.90;;;;;;5053038;28;20441;-27
2023/09/01 01:48:42;;;;;;;10.98;6.95;;;8.40;99.90;;;;;;5057429;28;20084;-27
2023/09/01 01:51:08;;;;;;;13.35;7.43;;;8.30;99.90;;;;;;5057371;28;20080;-27
2023/09/01 01:53:38;;;;;;;13.48;6.90;;;8.30;99.90;;;;;;5056810;28;20049;-27
2023/09/01 01:56:04;;;;;;;10.80;6.72;;;8.20;99.90;;;;;;5055555;28;20045;-27
2023/09/01 01:58:30;;;;;;;13.63;7.43;;;8.20;99.90;;;;;;5056647;28;20088;-27
2023/09/01 02:00:56;;;;;;;15.25;7.25;;;8.20;99.90;;;;;;5057515;28;20055;-28
2023/09/01 02:03:22;;;;;;;10.98;7.45;;;8.30;99.90;;;;;;5056508;28;20045;-27
2023/09/01 02:05:47;;;;;;;13.10;7.30;;;8.20;99.90;;;;;;5056563;28;20045;-27
2023/09/01 02:08:13;;;;;;;13.20;7.60;;;8.20;99.90;;;;;;5056541;28;20072;-27
2023/09/01 02:10:39;;;;;;;15.88;7.30;;;8.20;99.90;;;;;;5055256;28;20136;-27
2023/09/01 02:13:04;;;;;;;14.13;7.10;;;8.20;99.90;;;;;;5056261;28;20049;-27
2023/09/01 02:15:33;;;;;;;13.23;7.50;;;8.20;99.90;;;;;;5056413;28;20049;-27
2023/09/01 02:17:59;;;;;;;17.08;7.93;;;8.30;99.90;;;;;;5038833;28;20052;-27
2023/09/01 02:20:26;;;;;;;14.27;8.10;;;8.30;99.90;;;;;;5056308;28;20553;-27
2023/09/01 02:22:54;;;;;;;13.75;7.55;;;8.30;99.90;;;;;;5056781;28;20045;-27
2023/09/01 02:25:21;;;;;;;17.85;7.43;;;8.20;99.90;;;;;;5056166;28;20041;-27
2023/09/01 02:27:46;;;;;;;12.45;7.55;;;8.20;99.90;;;;;;5054664;28;20465;-27
2023/09/01 02:30:13;;;;;;;12.77;7.28;;;8.30;99.90;;;;;;5056102;28;20084;-28
2023/09/01 02:32:40;;;;;;;17.52;8.32;;;8.30;99.90;;;;;;5054901;28;20052;-27
2023/09/01 02:35:08;;;;;;;14.52;6.97;;;8.30;99.90;;;;;;5056025;28;20049;-27
2023/09/01 02:37:34;;;;;;;13.13;7.68;;;8.20;99.90;;;;;;5056368;28;20057;-27
2023/09/01 02:40:00;;;;;;;14.73;7.97;;;8.30;99.90;;;;;;5055983;28;20053;-27
2023/09/01 02:42:26;;;;;;;15.60;7.97;;;8.20;99.90;;;;;;5054844;28;20088;-27
2023/09/01 02:44:52;;;;;;;12.60;7.88;;;8.30;99.90;;;;;;5055726;28;20044;-27
2023/09/01 02:47:18;;;;;;;14.73;8.27;;;8.30;99.90;;;;;;5055766;28;20049;-27
2023/09/01 02:49:43;;;;;;;13.15;7.25;;;8.40;99.90;;;;;;5055784;28;20082;-27
2023/09/01 02:52:09;;;;;;;15.95;8.10;;;8.30;99.90;;;;;;5054418;28;20487;-27
2023/09/01 02:54:35;;;;;;;17.02;8.23;;;8.50;99.90;;;;;;5055960;28;20053;-27
2023/09/01 02:57:01;;;;;;;18.00;8.82;;;8.30;99.90;;;;;;5054887;28;20423;-27
2023/09/01 02:59:26;;;;;;;17.17;8.65;;;8.40;99.90;;;;;;5053563;28;20057;-27
2023/09/01 03:01:52;;;;;;;17.52;9.20;;;8.50;99.90;;;;;;5056057;28;20076;-27
2023/09/01 03:04:18;;;;;;;14.77;7.45;;;8.40;99.90;;;;;;5056223;28;20068;-27
2023/09/01 03:06:43;;;;;;;14.88;8.35;;;8.40;99.90;;;;;;5054235;28;20106;-27
2023/09/01 03:09:10;;;;;;;14.68;7.57;;;8.30;99.90;;;;;;5055984;28;20111;-27
2023/09/01 03:11:36;;;;;;;11.43;6.63;;;8.30;99.90;;;;;;5055373;28;20045;-27
2023/09/01 03:14:04;;;;;;;11.70;6.47;;;8.50;99.90;;;;;;5055259;28;20043;-27
2023/09/01 03:16:30;;;;;;;10.68;6.40;;;8.40;99.90;;;;;;5055775;28;20056;-27
2023/09/01 03:18:59;;;;;;;10.63;5.93;;;8.30;99.90;;;;;;5055203;28;20047;-27
2023/09/01 03:21:29;;;;;;;11.35;6.63;;;8.40;99.90;;;;;;5054717;28;20442;-27
2023/09/01 03:23:54;;;;;;;13.73;6.20;;;8.30;99.90;;;;;;5055020;28;20041;-27
2023/09/01 03:26:22;;;;;;;14.65;7.60;;;8.30;99.90;;;;;;5055007;28;20045;-27
2023/09/01 03:28:48;;;;;;;12.68;7.45;;;8.20;99.90;;;;;;5054974;28;20052;-27
2023/09/01 03:31:14;;;;;;;17.50;8.45;;;8.20;99.90;;;;;;5055191;28;20132;-27
2023/09/01 03:33:40;;;;;;;16.70;8.23;;;8.30;99.90;;;;;;5053920;28;20554;-27
2023/09/01 03:36:09;;;;;;;15.40;8.45;;;8.20;99.90;;;;;;5054616;28;20048;-26
2023/09/01 03:38:35;;;;;;;13.73;7.57;;;8.20;99.90;;;;;;5055421;28;20064;-28
2023/09/01 03:41:02;;;;;;;15.32;7.93;;;8.20;99.90;;;;;;5055323;28;20114;-27
2023/09/01 03:43:28;;;;;;;13.75;7.80;;;8.30;99.90;;;;;;5054579;28;20048;-27
2023/09/01 03:45:53;;;;;;;13.95;7.80;;;8.50;99.90;;;;;;5054682;28;20387;-27
2023/09/01 03:48:19;;;;;;;19.23;7.90;;;8.50;99.90;;;;;;5054895;28;20041;-27
2023/09/01 03:50:45;;;;;;;12.68;7.20;;;8.30;99.90;;;;;;5054599;28;20386;-27
2023/09/01 03:53:11;;;;;;;14.50;7.55;;;8.40;99.90;;;;;;5054252;28;20487;-27
2023/09/01 03:55:38;;;;;;;17.23;8.43;;;8.40;99.90;;;;;;5054511;28;20131;-27
2023/09/01 03:58:04;;;;;;;16.52;8.60;;;8.40;99.90;;;;;;5054468;28;20053;-27
2023/09/01 04:00:29;;;;;;;17.75;8.85;;;8.40;99.90;;;;;;5054365;28;20098;-29
2023/09/01 04:02:55;;;;;;;16.20;8.27;;;8.30;99.90;;;;;;5054382;28;20045;-27
2023/09/01 04:05:21;;;;;;;16.63;6.70;;;8.60;99.90;;;;;;5053127;28;20048;-27
2023/09/01 04:07:47;;;;;;;23.23;6.65;;;8.40;99.90;;;;;;5054322;28;20056;-27
2023/09/01 04:10:13;;;;;;;52.55;7.68;;;8.50;99.90;;;;;;5035838;28;20102;-27
2023/09/01 04:12:38;;;;;;;56.92;6.65;;;8.30;99.90;;;;;;5054181;28;20052;-27
2023/09/01 04:15:06;;;;;;;9.90;4.05;;;8.40;99.90;;;;;;5054124;28;20037;-27
2023/09/01 04:17:32;;;;;;;8.80;4.18;;;8.30;99.90;;;;;;5054092;28;20044;-27
2023/09/01 04:19:57;;;;;;;14.18;3.45;;;8.10;99.90;;;;;;5054626;28;20060;-27
2023/09/01 04:22:23;;;;;;;14.15;2.85;;;8.00;99.90;;;;;;5054013;28;20101;-27
2023/09/01 04:24:49;;;;;;;7.13;2.97;;;8.20;99.90;;;;;;5053918;28;20063;-27
2023/09/01 04:27:14;;;;;;;8.10;3.70;;;7.90;99.90;;;;;;5053950;28;20045;-28
2023/09/01 04:29:40;;;;;;;9.10;3.50;;;8.00;99.90;;;;;;5053886;28;20049;-27
2023/09/01 04:32:06;;;;;;;9.68;4.30;;;7.90;99.90;;;;;;5053876;28;20049;-27
2023/09/01 04:34:32;;;;;;;11.43;4.35;;;7.90;99.90;;;;;;5053809;28;20056;-27
2023/09/01 04:36:58;;;;;;;9.50;5.22;;;7.80;99.90;;;;;;5053778;28;20061;-26
2023/09/01 04:39:23;;;;;;;9.73;5.35;;;7.90;99.90;;;;;;5054321;28;20049;-27
2023/09/01 04:41:49;;;;;;;13.93;6.72;;;8.00;99.90;;;;;;5052667;28;20041;-25
2023/09/01 04:44:15;;;;;;;13.90;7.10;;;8.10;99.90;;;;;;5053322;28;20183;-27
2023/09/01 04:46:40;;;;;;;11.55;6.80;;;8.10;99.90;;;;;;5053656;28;20052;-28
2023/09/01 04:49:06;;;;;;;12.43;7.05;;;8.20;99.90;;;;;;5052439;28;20047;-27
2023/09/01 04:51:32;;;;;;;13.50;7.65;;;8.30;99.90;;;;;;5052371;28;20166;-27
2023/09/01 04:53:57;;;;;;;11.70;7.30;;;8.10;99.90;;;;;;5054131;28;20041;-27
2023/09/01 04:56:23;;;;;;;15.88;6.63;;;8.30;99.90;;;;;;5053861;28;20106;-27
2023/09/01 04:58:49;;;;;;;13.10;7.72;;;8.30;99.90;;;;;;5053566;28;20041;-27
2023/09/01 05:01:15;;;;;;;14.25;7.65;;;8.30;99.90;;;;;;5053554;28;20049;-27
2023/09/01 05:03:40;;;;;;;12.73;7.95;;;8.30;99.90;;;;;;5053446;28;20467;-27
2023/09/01 05:06:07;;;;;;;13.13;8.45;;;8.40;99.90;;;;;;5053721;28;20490;-27
2023/09/01 05:08:33;;;;;;;16.80;8.07;;;8.30;99.90;;;;;;5053450;28;20045;-27
2023/09/01 05:10:58;;;;;;;13.05;7.57;;;8.40;99.90;;;;;;5053289;28;20467;-27
2023/09/01 05:13:26;;;;;;;16.13;8.38;;;8.40;99.90;;;;;;5053371;28;20056;-27
2023/09/01 05:15:52;;;;;;;19.02;8.18;;;8.30;99.90;;;;;;5053409;28;20056;-27
2023/09/01 05:18:18;;;;;;;14.25;7.00;;;8.60;99.90;;;;;;5052680;28;20110;-27
2023/09/01 05:20:47;;;;;;;13.15;7.05;;;8.40;99.90;;;;;;5054056;28;20087;-27
2023/09/01 05:23:13;;;;;;;14.88;6.53;;;8.40;99.90;;;;;;5057043;28;20514;-27
2023/09/01 05:25:38;;;;;;;15.43;6.95;;;8.60;99.90;;;;;;5057373;28;20049;-27
2023/09/01 05:28:04;;;;;;;12.30;7.13;;;8.30;99.90;;;;;;5056113;28;20445;-27
2023/09/01 05:30:30;;;;;;;12.30;6.75;;;8.50;99.90;;;;;;5057248;28;20048;-27
2023/09/01 05:32:56;;;;;;;16.10;7.53;;;8.60;99.90;;;;;;5055735;28;20056;-27
2023/09/01 05:35:21;;;;;;;11.90;6.68;;;8.60;99.90;;;;;;5056847;28;20041;-27
2023/09/01 05:37:47;;;;;;;11.75;6.60;;;8.70;99.90;;;;;;5056888;28;20057;-27
2023/09/01 05:40:13;;;;;;;11.73;6.65;;;8.60;99.90;;;;;;5055587;28;20061;-27
2023/09/01 05:42:38;;;;;;;15.13;6.85;;;8.70;99.90;;;;;;5056972;28;20071;-27
2023/09/01 05:45:05;;;;;;;15.20;6.32;;;8.90;99.90;;;;;;5057222;28;20045;-27
2023/09/01 05:47:30;;;;;;;11.27;6.75;;;9.00;99.90;;;;;;5056945;28;20044;-27
2023/09/01 05:49:56;;;;;;;9.93;6.63;;;9.00;99.90;;;;;;5056889;28;20063;-27
2023/09/01 05:52:22;;;;;;;12.18;6.68;;;9.30;99.90;;;;;;5056546;28;20045;-27
2023/09/01 05:54:47;;;;;;;10.73;7.15;;;9.30;99.90;;;;;;5056762;28;20051;-27
2023/09/01 05:57:13;;;;;;;13.70;7.70;;;9.60;99.90;;;;;;5057051;28;20045;-27
2023/09/01 05:59:39;;;;;;;11.70;6.82;;;9.50;99.90;;;;;;5056719;28;20486;-27
2023/09/01 06:02:05;;;;;;;11.65;7.85;;;9.50;99.90;;;;;;5056369;28;20049;-27
2023/09/01 06:04:31;;;;;;;11.25;6.47;;;9.70;99.90;;;;;;5056502;28;20127;-27
2023/09/01 06:06:56;;;;;;;13.95;7.80;;;9.80;99.90;;;;;;5055457;28;20091;-27
2023/09/01 06:09:22;;;;;;;12.77;7.07;;;9.80;99.90;;;;;;5056543;28;20139;-28
2023/09/01 06:11:48;;;;;;;14.77;7.30;;;10.00;99.90;;;;;;5056511;28;20128;-27
2023/09/01 06:14:13;;;;;;;10.02;6.32;;;10.20;99.90;;;;;;5056440;28;20048;-27
2023/09/01 06:16:39;;;;;;;11.65;7.13;;;10.20;99.90;;;;;;5056354;28;20072;-28
2023/09/01 06:19:05;;;;;;;12.70;6.93;;;10.30;99.90;;;;;;5056423;28;20132;-27
2023/09/01 06:21:33;;;;;;;12.18;6.53;;;10.50;99.90;;;;;;5056301;28;20131;-27
2023/09/01 06:23:59;;;;;;;12.60;6.30;;;10.50;99.90;;;;;;5056724;28;20041;-27
2023/09/01 06:26:25;;;;;;;9.85;6.93;;;10.60;99.90;;;;;;5056199;28;20040;-28
2023/09/01 06:28:50;;;;;;;10.65;6.65;;;10.80;99.90;;;;;;5055849;28;20127;-27
2023/09/01 06:31:16;;;;;;;13.32;6.32;;;10.80;99.90;;;;;;5056130;28;20047;-27
2023/09/01 06:33:44;;;;;;;11.02;6.20;;;11.10;99.90;;;;;;5054432;28;20060;-27
2023/09/01 06:36:12;;;;;;;9.13;5.90;;;11.00;99.90;;;;;;5055842;28;20053;-27
2023/09/01 06:38:39;;;;;;;9.98;6.05;;;11.30;99.90;;;;;;5056604;28;20088;-27
2023/09/01 06:41:04;;;;;;;10.15;5.10;;;11.30;99.90;;;;;;5055938;28;20045;-27
2023/09/01 06:43:30;;;;;;;9.38;5.28;;;11.40;99.90;;;;;;5055757;28;20041;-27
2023/09/01 06:45:57;;;;;;;9.43;4.70;;;11.50;99.90;;;;;;5055847;28;20045;-27
2023/09/01 06:48:23;;;;;;;7.40;4.90;;;11.50;99.90;;;;;;5056373;28;20049;-27
2023/09/01 06:50:49;;;;;;;7.60;5.07;;;11.70;99.90;;;;;;5055806;28;20102;-27
2023/09/01 06:53:15;;;;;;;10.40;5.43;;;11.80;99.90;;;;;;5054580;28;20048;-27
2023/09/01 06:55:40;;;;;;;10.73;4.60;;;12.00;99.90;;;;;;5055613;28;20483;-27
2023/09/01 06:58:07;;;;;;;11.93;4.00;;;12.10;99.90;;;;;;5054478;28;20049;-27
2023/09/01 07:00:32;;;;;;;7.32;4.50;;;12.20;99.90;;;;;;5054423;28;20072;-27
2023/09/01 07:02:58;;;;;;;7.55;3.53;;;12.40;99.90;;;;;;5055549;28;20474;-27
2023/09/01 07:05:24;;;;;;;5.45;3.20;;;12.50;99.90;;;;;;5055419;28;20091;-27
2023/09/01 07:07:50;;;;;;;4.35;2.83;;;12.70;99.90;;;;;;5054266;28;20044;-27
2023/09/01 07:10:16;;;;;;;6.97;3.47;;;12.80;99.90;;;;;;5055693;28;20049;-27
2023/09/01 07:12:43;;;;;;;7.97;3.00;;;13.00;99.90;;;;;;5054378;28;20075;-27
2023/09/01 07:15:09;;;;;;;4.57;2.60;;;13.00;99.90;;;;;;5055257;28;20038;-27
2023/09/01 07:17:35;;;;;;;3.85;2.38;;;13.20;99.90;;;;;;5054558;28;20041;-28
2023/09/01 07:20:01;;;;;;;9.13;3.17;;;13.20;99.90;;;;;;5055252;28;20055;-27
2023/09/01 07:22:26;;;;;;;6.43;2.80;;;13.40;99.90;;;;;;5037643;28;20068;-27
2023/09/01 07:24:52;;;;;;;3.53;2.45;;;13.50;99.90;;;;;;5055020;28;20041;-27
2023/09/01 07:27:18;;;;;;;6.03;2.60;;;13.60;99.90;;;;;;5055066;28;20053;-27
2023/09/01 07:29:48;;;;;;;4.80;2.42;;;13.60;99.90;;;;;;5053859;28;20124;-27
2023/09/01 07:32:17;;;;;;;4.20;2.40;;;13.70;99.90;;;;;;5055863;28;20048;-27
2023/09/01 07:34:45;;;;;;;5.22;2.40;;;13.80;99.90;;;;;;5054930;28;20040;-27
2023/09/01 07:37:12;;;;;;;5.90;3.10;;;13.90;99.90;;;;;;5055109;28;20071;-27
2023/09/01 07:39:38;;;;;;;6.57;3.17;;;14.10;99.90;;;;;;5054831;28;20057;-27
2023/09/01 07:42:04;;;;;;;8.43;3.47;;;14.20;99.90;;;;;;5054767;28;20060;-27
2023/09/01 07:44:30;;;;;;;4.57;2.10;;;14.40;99.90;;;;;;5054580;28;20052;-27
2023/09/01 07:46:56;;;;;;;5.63;2.05;;;14.60;99.90;;;;;;5036602;28;20414;-27
2023/09/01 07:49:22;;;;;;;7.13;3.20;;;14.80;99.90;;;;;;5054967;28;20048;-27
2023/09/01 07:51:48;;;;;;;6.72;2.30;;;15.00;99.90;;;;;;5054609;28;20054;-27
2023/09/01 07:54:14;;;;;;;3.17;1.92;;;15.10;99.90;;;;;;5053648;28;20041;-27
2023/09/01 07:56:40;;;;;;;6.70;2.03;;;15.20;99.90;;;;;;5055079;28;20498;-27
2023/09/01 07:59:05;;;;;;;6.22;2.72;;;15.30;99.90;;;;;;5054518;28;20556;-27
2023/09/01 08:01:31;;;;;;;5.30;2.17;;;15.30;99.90;;;;;;5054997;28;20548;-27
2023/09/01 08:04:00;;;;;;;3.15;1.67;;;15.50;99.90;;;;;;5037541;28;20053;-28
2023/09/01 08:06:29;;;;;;;3.58;2.03;;;15.60;99.90;;;;;;5054340;28;20073;-28
2023/09/01 08:08:55;;;;;;;3.55;1.70;;;15.90;99.90;;;;;;5053113;28;20052;-28
2023/09/01 08:11:21;;;;;;;4.93;2.13;;;16.00;99.90;;;;;;5054241;28;20099;-27
2023/09/01 08:13:46;;;;;;;4.30;1.55;;;16.20;99.90;;;;;;5054217;28;20467;-28
2023/09/01 08:16:13;;;;;;;2.78;1.08;;;16.30;99.90;;;;;;5052969;28;20036;-28
2023/09/01 08:18:38;;;;;;;5.20;1.27;;;16.40;99.90;;;;;;5053825;28;20533;-28
2023/09/01 08:21:07;;;;;;;2.75;0.95;;;16.40;99.90;;;;;;5054661;28;20056;-27
2023/09/01 08:23:33;;;;;;;4.32;1.45;;;16.50;99.90;;;;;;5053971;28;20099;-28
2023/09/01 08:26:04;;;;;;;4.78;1.25;;;16.60;99.90;;;;;;5052858;28;20040;-28
2023/09/01 08:28:31;;;;;;;6.03;1.75;;;16.60;99.90;;;;;;5053037;28;20475;-28
2023/09/01 08:31:03;;;;;;;4.95;1.30;;;16.70;99.90;;;;;;5052732;28;20045;-27
2023/09/01 08:33:29;;;;;;;5.70;1.55;;;16.80;99.90;;;;;;5054735;28;20391;-28
2023/09/01 08:35:55;;;;;;;5.60;1.45;;;17.00;99.90;;;;;;5053882;28;20048;-28
2023/09/01 08:38:21;;;;;;;5.75;1.60;;;17.10;99.90;;;;;;5053916;28;20147;-28
2023/09/01 08:40:48;;;;;;;4.82;1.05;;;17.20;99.90;;;;;;5053689;28;20052;-26
2023/09/01 08:43:15;;;;;;;7.72;1.80;;;17.30;99.90;;;;;;5053664;28;20053;-28
2023/09/01 08:45:42;;;;;;;5.18;1.80;;;17.30;17.00;;;;;;5053928;28;20033;-28
2023/09/01 08:48:08;;;;;;;4.65;1.20;;;17.40;4.80;;;;;;5053388;28;20503;-28
2023/09/01 08:50:34;;;;;;;6.85;1.55;;;17.50;99.30;;;;;;5052715;28;20041;-28
2023/09/01 08:53:02;;;;;;;3.42;1.45;;;17.60;99.90;;;;;;5053275;28;20051;-29
2023/09/01 08:55:28;;;;;;;5.38;1.65;;;17.70;1.00;;;;;;5053509;28;20049;-28
2023/09/01 08:57:53;;;;;;;5.60;2.10;;;17.80;1.00;;;;;;5053474;28;20052;-28
2023/09/01 09:00:19;;;;;;;3.08;1.00;;;18.00;1.00;;;;;;5053468;28;20084;-28
2023/09/01 09:02:46;;;;;;;4.22;1.10;;;18.10;1.00;;;;;;5054004;28;20135;-28
2023/09/01 09:05:15;;;;;;;6.50;1.23;;;18.30;1.00;;;;;;5053364;28;20049;-28
2023/09/01 09:07:41;;;;;;;3.90;1.30;;;18.40;1.00;;;;;;5053249;28;20045;-28
2023/09/01 09:10:08;;;;;;;5.97;1.33;;;18.30;99.90;;;;;;5053558;28;20170;-28
2023/09/01 09:12:41;;;;;;;3.00;0.80;;;18.20;99.90;;;;;;5052329;28;20053;-28
2023/09/01 09:15:07;;;;;;;;;;;18.20;99.90;;;;;;5054497;28;20041;-28
2023/09/01 09:17:48;;;;;;;4.40;0.93;;;18.20;1.00;;;;;;5052205;28;20329;-28
2023/09/01 09:20:17;;;;;;;4.30;1.27;;;18.30;99.90;;;;;;5053237;28;20136;-28
2023/09/01 09:22:50;;;;;;;3.75;0.82;;;18.40;1.00;;;;;;5053168;28;20551;-28
2023/09/01 09:25:30;;;;;;;5.05;1.15;;;18.50;99.90;;;;;;5053124;28;20041;-28
2023/09/01 09:28:00;;;;;;;6.28;1.27;;;18.50;99.90;;;;;;5053182;28;20040;-28
2023/09/01 09:30:26;;;;;;;4.45;0.93;;;18.70;99.90;;;;;;5052142;28;20482;-28
2023/09/01 09:33:08;;;;;;;3.13;0.93;;;18.70;99.90;;;;;;5053136;28;20045;-28
2023/09/01 09:35:35;;;;;;;7.35;1.00;;;18.80;99.90;;;;;;5053097;28;20068;-29
2023/09/01 09:38:01;;;;;;;3.28;1.25;;;19.00;99.90;;;;;;5053345;28;20057;-28
2023/09/01 09:40:27;;;;;;;3.60;0.90;;;19.00;69.20;;;;;;5053285;28;20060;-28
2023/09/01 09:43:00;;;;;;;4.30;1.40;;;19.20;1.00;;;;;;5053590;28;20368;-28
2023/09/01 09:45:30;;;;;;;2.30;0.70;;;19.20;1.00;;;;;;5052139;28;20483;-28
2023/09/01 09:47:58;;;;;;;2.60;1.27;;;19.20;1.00;;;;;;5036411;28;20144;-28
2023/09/01 09:50:24;;;;;;;3.17;1.20;;;19.30;1.00;;;;;;5052131;28;20364;-28
2023/09/01 09:52:58;;;;;;;5.80;1.20;;;19.20;1.00;;;;;;5053944;28;20059;-28
2023/09/01 09:55:43;;;;;;;3.72;1.17;;;19.20;99.90;;;;;;5053963;28;20047;-28
2023/09/01 09:58:09;;;;;;;2.90;0.95;;;19.20;99.90;;;;;;5053363;28;20123;-28
2023/09/01 10:00:42;;;;;;;8.77;1.70;;;19.10;99.90;;;;;;5052989;28;20132;-28
2023/09/01 10:03:08;;;;;;;1.90;0.75;;;19.10;96.50;;;;;;5053000;28;20057;-29
2023/09/01 10:05:35;;;;;;;3.95;0.85;;;19.10;99.90;;;;;;5052859;28;20083;-28
2023/09/01 10:08:06;;;;;;;4.47;1.10;;;19.20;99.90;;;;;;5052370;28;20045;-29
2023/09/01 10:10:33;;;;;;;4.20;1.10;;;19.20;84.80;;;;;;5056655;28;20098;-28
2023/09/01 10:13:04;;;;;;;3.72;1.20;;;19.30;99.90;;;;;;5056512;28;20049;-28
2023/09/01 10:15:37;;;;;;;3.22;0.93;;;19.60;89.30;;;;;;5055480;28;20041;-28
2023/09/01 10:18:08;;;;;;;3.60;0.80;;;;;;;;;;5056464;28;20045;-27
2023/09/01 10:20:36;;;;;;;3.35;0.80;;;20.40;1.00;;;;;;5056344;28;20480;-28
2023/09/01 10:23:07;;;;;;;3.00;1.08;;;20.80;99.90;;;;;;5055358;28;20444;-28
2023/09/01 10:25:34;;;;;;;2.90;1.00;;;21.10;1.00;;;;;;5054737;28;20489;-29
2023/09/01 10:28:13;;;;;;;4.97;2.22;;;21.40;99.90;;;;;;5055601;28;20136;-29
2023/09/01 10:30:44;;;;;;;1.67;0.70;;;21.30;99.90;;;;;;5056210;28;20087;-28
2023/09/01 10:33:11;;;;;;;1.95;0.75;;;21.10;12.30;;;;;;5056475;28;20045;-28
2023/09/01 10:35:45;;;;;;;3.03;0.75;;;21.10;62.30;;;;;;5056071;28;20116;-28
2023/09/01 10:38:23;;;;;;;6.00;1.15;;;21.00;1.00;;;;;;5057251;28;20057;-28
2023/09/01 10:40:53;;;;;;;5.38;1.60;;;20.90;1.00;;;;;;5056315;28;20041;-28
2023/09/01 10:43:34;;;;;;;1.48;1.13;;;20.80;1.00;;;;;;5056435;28;20398;-26
2023/09/01 10:46:12;;;;;;;4.28;1.05;;;21.00;1.00;;;;;;5056061;28;20048;-28
2023/09/01 10:48:50;;;;;;;4.15;0.98;;;21.40;1.00;;;;;;5055855;28;20048;-29
2023/09/01 10:51:20;;;;;;;3.78;1.27;;;22.60;99.90;;;;;;5055652;28;20123;-28
2023/09/01 10:53:46;;;;;;;4.10;1.20;;;22.70;99.90;;;;;;5056375;28;20114;-28
2023/09/01 10:56:15;;;;;;;1.75;0.60;;;23.30;99.90;;;;;;5055699;28;20049;-29
2023/09/01 10:58:49;;;;;;;3.50;0.90;;;23.60;1.00;;;;;;5055634;28;20080;-29
2023/09/01 11:01:31;;;;;;;2.72;1.08;;;23.80;98.80;;;;;;5054672;28;20052;-29
2023/09/01 11:04:21;;;;;;;3.50;0.70;;;23.90;15.30;;;;;;5055534;28;20041;-29
2023/09/01 11:06:56;;;;;;;1.33;0.40;;;23.80;1.00;;;;;;5055495;28;20045;-29
2023/09/01 11:09:34;;;;;;;2.30;0.80;;;23.60;99.90;;;;;;5054263;28;20080;-29
2023/09/01 11:12:01;;;;;;;3.53;0.95;;;23.30;99.90;;;;;;5037836;28;20467;-29
2023/09/01 11:14:26;;;;;;;2.03;0.80;;;23.20;1.00;;;;;;5055342;28;20128;-29
2023/09/01 11:16:52;;;;;;;2.55;0.90;;;23.40;1.00;;;;;;5055583;28;20128;-29
2023/09/01 11:19:18;;;;;;;4.25;0.80;;;23.30;1.00;;;;;;5055372;28;20041;-30
2023/09/01 11:21:46;;;;;;;3.45;0.80;;;23.40;1.00;;;;;;5055782;28;20129;-29
2023/09/01 11:24:12;;;;;;;4.25;1.42;;;23.60;1.00;;;;;;5055129;28;20099;-30
2023/09/01 11:26:38;;;;;;;3.35;1.42;;;23.90;1.00;;;;;;5055092;28;20053;-29
2023/09/01 11:29:16;;;;;;;3.35;1.20;;;25.10;99.90;;;;;;5055117;28;20155;-29
2023/09/01 11:31:43;;;;;;;3.63;1.15;;;25.30;99.90;;;;;;5055000;28;20044;-29
2023/09/01 11:34:10;;;;;;;2.72;1.05;;;26.10;99.90;;;;;;5054969;28;20112;-29
2023/09/01 11:36:46;;;;;;;4.93;1.25;;;26.50;99.90;;;;;;5054891;28;20057;-29
2023/09/01 11:39:13;;;;;;;4.53;1.30;;;27.00;90.30;;;;;;5054883;28;20132;-29
2023/09/01 11:41:40;;;;;;;3.97;0.98;;;26.80;99.90;;;;;;5054827;28;20072;-29
2023/09/01 11:44:07;;;;;;;4.60;1.65;;;26.70;97.20;;;;;;5054623;28;20056;-29
2023/09/01 11:46:34;;;;;;;3.55;1.35;;;26.40;61.20;;;;;;5054753;28;20099;-29
2023/09/01 11:49:01;;;;;;;2.83;1.13;;;26.50;72.00;;;;;;5054694;28;20127;-29
2023/09/01 11:51:37;;;;;;;4.43;1.27;;;26.40;28.80;;;;;;5036802;28;20522;-29
2023/09/01 11:54:03;;;;;;;4.40;1.10;;;26.30;1.00;;;;;;5054467;28;20052;-29
2023/09/01 11:56:29;;;;;;;4.35;1.77;;;25.90;1.00;;;;;;5053046;28;20483;-29
2023/09/01 11:58:58;;;;;;;3.83;1.20;;;25.70;3.70;;;;;;5054554;28;20056;-29
2023/09/01 12:01:30;;;;;;;3.08;1.20;;;25.60;29.60;;;;;;5054485;28;20057;-30
2023/09/01 12:04:05;;;;;;;3.27;1.43;;;25.70;1.00;;;;;;5053758;28;20047;-29
2023/09/01 12:06:31;;;;;;;4.68;1.58;;;25.60;1.00;;;;;;5055248;28;20060;-29
2023/09/01 12:09:11;;;;;;;4.65;1.60;;;25.10;1.00;;;;;;5053962;28;20411;-29
2023/09/01 12:12:00;;;;;;;6.70;1.88;;;24.70;1.00;;;;;;5054323;28;20118;-29
2023/09/01 12:14:27;;;;;;;5.38;1.60;;;24.50;1.00;;;;;;5054342;28;20083;-29
2023/09/01 12:16:53;;;;;;;3.65;1.77;;;24.20;46.00;;;;;;5053222;28;20057;-29
2023/09/01 12:19:26;;;;;;;4.63;1.63;;;24.00;68.20;;;;;;5054965;28;20048;-29
2023/09/01 12:21:57;;;;;;;4.10;1.60;;;24.70;91.20;;;;;;5054151;28;20102;-29
2023/09/01 12:24:23;;;;;;;3.17;1.60;;;25.50;6.20;;;;;;5054518;28;20041;-31
2023/09/01 12:26:49;;;;;;;5.03;1.92;;;25.90;10.00;;;;;;5053994;28;20135;-29
2023/09/01 12:29:15;;;;;;;5.85;1.70;;;25.70;1.00;;;;;;5054263;28;20084;-30
2023/09/01 12:31:42;;;;;;;5.13;2.00;;;26.20;1.00;;;;;;5035647;28;20052;-29
2023/09/01 12:34:08;;;;;;;3.03;1.73;;;26.30;1.00;;;;;;5053002;28;20071;-30
2023/09/01 12:36:34;;;;;;;7.32;2.08;;;26.70;1.00;;;;;;5053521;28;20748;-29
2023/09/01 12:38:59;;;;;;;5.43;1.70;;;27.00;1.00;;;;;;5053857;28;20053;-29
2023/09/01 12:41:25;;;;;;;2.58;1.75;;;27.10;1.00;;;;;;5053790;28;20132;-29
2023/09/01 12:43:51;;;;;;;6.63;2.00;;;27.50;1.00;;;;;;5053910;28;20041;-29
2023/09/01 12:46:16;;;;;;;3.42;1.50;;;27.70;1.00;;;;;;5053762;28;20377;-29
2023/09/01 12:48:42;;;;;;;7.20;1.80;;;27.90;1.00;;;;;;5054244;28;20084;-29
2023/09/01 12:51:08;;;;;;;5.18;1.88;;;28.00;1.00;;;;;;5052471;28;20055;-29